sensor_id;sensor_type;location;lat;lon;timestamp;pressure;altitude;pressure_sealevel;temperature;humidity
72950;BME280;64868;45.710;9.590;2023-04-01T00:01:55;97826.97;;;7.21;76.90
72950;BME280;64868;45.710;9.590;2023-04-01T00:04:27;97800.97;;;7.18;76.28
72950;BME280;64868;45.710;9.590;2023-04-01T00:06:55;97795.31;;;7.21;77.58
72950;BME280;64868;45.710;9.590;2023-04-01T00:09:25;97812.94;;;7.38;75.77
72950;BME280;64868;45.710;9.590;2023-04-01T00:11:55;97808.59;;;7.13;78.19
72950;BME280;64868;45.710;9.590;2023-04-01T00:14:28;97811.38;;;7.00;77.26
72950;BME280;64868;45.710;9.590;2023-04-01T00:17:00;97809.56;;;7.01;78.59
72950;BME280;64868;45.710;9.590;2023-04-01T00:19:30;97785.53;;;7.07;77.26
72950;BME280;64868;45.710;9.590;2023-04-01T00:22:03;97801.94;;;7.06;77.62
72950;BME280;64868;45.710;9.590;2023-04-01T00:24:33;97788.13;;;6.98;77.83
72950;BME280;64868;45.710;9.590;2023-04-01T00:27:04;97796.88;;;7.01;78.25
72950;BME280;64868;45.710;9.590;2023-04-01T00:29:37;97777.13;;;6.88;77.70
72950;BME280;64868;45.710;9.590;2023-04-01T00:32:09;97795.59;;;6.83;78.60
72950;BME280;64868;45.710;9.590;2023-04-01T00:34:42;97792.09;;;6.70;79.00
72950;BME280;64868;45.710;9.590;2023-04-01T00:37:12;97792.72;;;6.73;78.09
72950;BME280;64868;45.710;9.590;2023-04-01T00:39:45;97785.34;;;6.75;79.04
72950;BME280;64868;45.710;9.590;2023-04-01T00:42:15;97777.84;;;6.79;76.90
72950;BME280;64868;45.710;9.590;2023-04-01T00:44:51;97786.47;;;6.84;78.16
72950;BME280;64868;45.710;9.590;2023-04-01T00:47:26;97780.66;;;6.77;78.73
72950;BME280;64868;45.710;9.590;2023-04-01T00:50:00;97777.22;;;6.75;79.24
72950;BME280;64868;45.710;9.590;2023-04-01T00:52:30;97768.72;;;6.69;78.80
72950;BME280;64868;45.710;9.590;2023-04-01T00:55:04;97772.44;;;6.79;78.34
72950;BME280;64868;45.710;9.590;2023-04-01T00:57:42;97765.91;;;6.81;77.72
72950;BME280;64868;45.710;9.590;2023-04-01T01:00:17;97763.78;;;6.74;78.22
72950;BME280;64868;45.710;9.590;2023-04-01T01:02:52;97765.53;;;6.75;77.39
72950;BME280;64868;45.710;9.590;2023-04-01T01:05:30;97734.09;;;6.61;78.03
72950;BME280;64868;45.710;9.590;2023-04-01T01:08:14;97757.66;;;6.72;77.31
72950;BME280;64868;45.710;9.590;2023-04-01T01:10:51;97740.00;;;6.66;77.09
72950;BME280;64868;45.710;9.590;2023-04-01T01:13:39;97767.78;;;6.92;77.26
72950;BME280;64868;45.710;9.590;2023-04-01T01:16:19;97779.38;;;6.94;76.42
72950;BME280;64868;45.710;9.590;2023-04-01T01:19:08;97768.16;;;6.99;75.65
72950;BME280;64868;45.710;9.590;2023-04-01T01:21:54;97770.28;;;7.06;76.33
72950;BME280;64868;45.710;9.590;2023-04-01T01:24:49;97762.91;;;7.09;75.32
72950;BME280;64868;45.710;9.590;2023-04-01T01:27:24;97765.00;;;7.05;75.35
72950;BME280;64868;45.710;9.590;2023-04-01T01:29:59;97753.63;;;7.00;75.21
72950;BME280;64868;45.710;9.590;2023-04-01T01:35:45;97750.94;;;7.11;74.17
72950;BME280;64868;45.710;9.590;2023-04-01T01:38:20;97767.13;;;6.77;76.58
72950;BME280;64868;45.710;9.590;2023-04-01T01:40:54;97722.81;;;6.67;76.31
72950;BME280;64868;45.710;9.590;2023-04-01T01:43:47;97743.94;;;6.62;76.70
72950;BME280;64868;45.710;9.590;2023-04-01T01:46:24;97755.91;;;6.60;77.06
72950;BME280;64868;45.710;9.590;2023-04-01T01:49:00;97754.94;;;6.72;76.32
72950;BME280;64868;45.710;9.590;2023-04-01T01:51:37;97757.84;;;6.57;75.14
72950;BME280;64868;45.710;9.590;2023-04-01T01:54:13;97758.69;;;6.58;76.45
72950;BME280;64868;45.710;9.590;2023-04-01T01:56:48;97753.81;;;6.63;75.08
72950;BME280;64868;45.710;9.590;2023-04-01T01:59:22;97756.25;;;6.66;75.24
72950;BME280;64868;45.710;9.590;2023-04-01T02:01:56;97745.66;;;6.52;76.75
72950;BME280;64868;45.710;9.590;2023-04-01T02:04:27;97757.22;;;6.54;76.33
72950;BME280;64868;45.710;9.590;2023-04-01T02:06:58;97766.94;;;7.03;74.67
72950;BME280;64868;45.710;9.590;2023-04-01T02:09:31;97772.97;;;6.95;73.67
72950;BME280;64868;45.710;9.590;2023-04-01T02:12:07;97774.63;;;7.31;73.47
72950;BME280;64868;45.710;9.590;2023-04-01T02:17:19;97761.63;;;6.90;74.32
72950;BME280;64868;45.710;9.590;2023-04-01T02:19:59;97765.22;;;7.02;73.43
72950;BME280;64868;45.710;9.590;2023-04-01T02:22:28;97678.28;;;6.36;73.51
72950;BME280;64868;45.710;9.590;2023-04-01T02:25:03;97769.59;;;6.80;74.45
72950;BME280;64868;45.710;9.590;2023-04-01T02:27:35;97784.06;;;6.57;74.20
72950;BME280;64868;45.710;9.590;2023-04-01T02:30:10;97781.47;;;6.91;72.79
72950;BME280;64868;45.710;9.590;2023-04-01T02:32:41;97778.66;;;6.57;74.03
72950;BME280;64868;45.710;9.590;2023-04-01T02:35:13;97779.72;;;6.54;75.50
72950;BME280;64868;45.710;9.590;2023-04-01T02:37:45;97794.91;;;6.57;74.32
72950;BME280;64868;45.710;9.590;2023-04-01T02:40:18;97785.50;;;6.50;74.64
72950;BME280;64868;45.710;9.590;2023-04-01T02:42:49;97769.16;;;6.27;74.19
72950;BME280;64868;45.710;9.590;2023-04-01T02:45:18;97796.75;;;6.32;75.63
72950;BME280;64868;45.710;9.590;2023-04-01T02:47:52;97789.56;;;6.20;75.96
72950;BME280;64868;45.710;9.590;2023-04-01T02:50:22;97788.53;;;6.10;75.90
72950;BME280;64868;45.710;9.590;2023-04-01T02:52:58;97785.69;;;6.12;76.36
72950;BME280;64868;45.710;9.590;2023-04-01T02:55:28;97764.13;;;5.99;75.82
72950;BME280;64868;45.710;9.590;2023-04-01T02:57:59;97792.91;;;6.59;73.25
72950;BME280;64868;45.710;9.590;2023-04-01T03:00:32;97765.19;;;6.20;75.06
72950;BME280;64868;45.710;9.590;2023-04-01T03:03:01;97764.28;;;6.08;75.97
72950;BME280;64868;45.710;9.590;2023-04-01T03:05:33;97799.94;;;6.26;74.44
72950;BME280;64868;45.710;9.590;2023-04-01T03:08:07;97785.56;;;6.13;75.00
72950;BME280;64868;45.710;9.590;2023-04-01T03:10:33;97783.44;;;6.05;76.02
72950;BME280;64868;45.710;9.590;2023-04-01T03:13:03;97819.44;;;6.19;75.88
72950;BME280;64868;45.710;9.590;2023-04-01T03:15:36;97752.44;;;5.85;75.75
72950;BME280;64868;45.710;9.590;2023-04-01T03:18:09;97781.56;;;5.95;76.15
72950;BME280;64868;45.710;9.590;2023-04-01T03:20:39;97802.00;;;6.23;75.12
72950;BME280;64868;45.710;9.590;2023-04-01T03:23:10;97806.31;;;6.25;74.46
72950;BME280;64868;45.710;9.590;2023-04-01T03:25:40;97799.59;;;6.07;75.36
72950;BME280;64868;45.710;9.590;2023-04-01T03:28:10;97799.94;;;6.02;74.99
72950;BME280;64868;45.710;9.590;2023-04-01T03:30:43;97813.78;;;5.98;75.24
72950;BME280;64868;45.710;9.590;2023-04-01T03:33:15;97776.50;;;5.77;75.67
72950;BME280;64868;45.710;9.590;2023-04-01T03:35:48;97806.09;;;5.92;75.58
72950;BME280;64868;45.710;9.590;2023-04-01T03:38:21;97824.72;;;5.96;75.29
72950;BME280;64868;45.710;9.590;2023-04-01T03:40:52;97821.56;;;5.90;75.78
72950;BME280;64868;45.710;9.590;2023-04-01T03:43:22;97826.97;;;5.90;75.84
72950;BME280;64868;45.710;9.590;2023-04-01T03:45:54;97810.31;;;5.83;74.71
72950;BME280;64868;45.710;9.590;2023-04-01T03:48:24;97824.31;;;5.77;74.68
72950;BME280;64868;45.710;9.590;2023-04-01T03:50:57;97831.09;;;5.82;74.52
72950;BME280;64868;45.710;9.590;2023-04-01T03:53:27;97837.69;;;5.91;75.19
72950;BME280;64868;45.710;9.590;2023-04-01T03:55:55;97818.03;;;5.76;74.75
72950;BME280;64868;45.710;9.590;2023-04-01T03:58:23;97814.44;;;5.89;74.81
72950;BME280;64868;45.710;9.590;2023-04-01T04:00:53;97842.88;;;6.07;73.47
72950;BME280;64868;45.710;9.590;2023-04-01T04:03:23;97841.97;;;6.19;72.42
72950;BME280;64868;45.710;9.590;2023-04-01T04:05:53;97768.06;;;5.69;73.73
72950;BME280;64868;45.710;9.590;2023-04-01T04:08:26;97830.88;;;5.85;73.72
72950;BME280;64868;45.710;9.590;2023-04-01T04:10:58;97829.16;;;5.72;73.32
72950;BME280;64868;45.710;9.590;2023-04-01T04:13:28;97842.25;;;5.78;73.65
72950;BME280;64868;45.710;9.590;2023-04-01T04:15:59;97835.22;;;5.75;74.27
72950;BME280;64868;45.710;9.590;2023-04-01T04:18:26;97815.56;;;5.73;74.21
72950;BME280;64868;45.710;9.590;2023-04-01T04:20:54;97828.31;;;5.71;73.19
72950;BME280;64868;45.710;9.590;2023-04-01T04:23:27;97850.56;;;5.75;75.05
72950;BME280;64868;45.710;9.590;2023-04-01T04:26:03;97852.63;;;5.71;74.23
72950;BME280;64868;45.710;9.590;2023-04-01T04:28:33;97846.28;;;5.72;74.79
72950;BME280;64868;45.710;9.590;2023-04-01T04:31:06;97851.34;;;6.02;73.03
72950;BME280;64868;45.710;9.590;2023-04-01T04:33:34;97846.44;;;6.07;72.35
72950;BME280;64868;45.710;9.590;2023-04-01T04:36:07;97835.09;;;6.02;72.13
72950;BME280;64868;45.710;9.590;2023-04-01T04:38:39;97830.44;;;5.92;71.96
72950;BME280;64868;45.710;9.590;2023-04-01T04:41:15;97834.44;;;5.86;71.93
72950;BME280;64868;45.710;9.590;2023-04-01T04:43:50;97831.13;;;5.95;71.46
72950;BME280;64868;45.710;9.590;2023-04-01T04:46:20;97834.78;;;5.94;71.13
72950;BME280;64868;45.710;9.590;2023-04-01T04:48:53;97795.97;;;5.70;71.94
72950;BME280;64868;45.710;9.590;2023-04-01T04:51:21;97840.97;;;5.83;71.50
72950;BME280;64868;45.710;9.590;2023-04-01T04:53:49;97805.63;;;5.61;71.73
72950;BME280;64868;45.710;9.590;2023-04-01T04:56:22;97820.97;;;5.73;72.12
72950;BME280;64868;45.710;9.590;2023-04-01T04:58:54;97831.72;;;5.86;72.50
72950;BME280;64868;45.710;9.590;2023-04-01T05:01:27;97818.47;;;5.70;72.44
72950;BME280;64868;45.710;9.590;2023-04-01T05:04:00;97828.84;;;5.76;72.69
72950;BME280;64868;45.710;9.590;2023-04-01T05:06:33;97827.34;;;5.72;72.08
72950;BME280;64868;45.710;9.590;2023-04-01T05:09:05;97822.03;;;5.71;71.89
72950;BME280;64868;45.710;9.590;2023-04-01T05:11:38;97845.59;;;5.81;72.92
72950;BME280;64868;45.710;9.590;2023-04-01T05:14:13;97845.38;;;5.84;72.08
72950;BME280;64868;45.710;9.590;2023-04-01T05:16:46;97826.16;;;5.76;72.65
72950;BME280;64868;45.710;9.590;2023-04-01T05:19:19;97847.75;;;5.89;73.18
72950;BME280;64868;45.710;9.590;2023-04-01T05:21:51;97823.84;;;5.83;72.03
72950;BME280;64868;45.710;9.590;2023-04-01T05:24:24;97838.25;;;5.96;72.45
72950;BME280;64868;45.710;9.590;2023-04-01T05:26:54;97843.31;;;6.01;71.06
72950;BME280;64868;45.710;9.590;2023-04-01T05:29:27;97827.28;;;5.98;71.16
72950;BME280;64868;45.710;9.590;2023-04-01T05:31:59;97856.97;;;6.23;70.62
72950;BME280;64868;45.710;9.590;2023-04-01T05:34:32;97844.50;;;6.33;68.82
72950;BME280;64868;45.710;9.590;2023-04-01T05:37:05;97843.91;;;6.65;68.19
72950;BME280;64868;45.710;9.590;2023-04-01T05:39:39;97862.19;;;6.74;66.72
72950;BME280;64868;45.710;9.590;2023-04-01T05:42:09;97865.41;;;6.79;67.00
72950;BME280;64868;45.710;9.590;2023-04-01T05:44:42;97843.97;;;6.76;66.30
72950;BME280;64868;45.710;9.590;2023-04-01T05:47:15;97845.50;;;6.92;65.51
72950;BME280;64868;45.710;9.590;2023-04-01T05:49:45;97868.25;;;7.24;64.92
72950;BME280;64868;45.710;9.590;2023-04-01T05:52:17;97837.66;;;7.11;63.85
72950;BME280;64868;45.710;9.590;2023-04-01T05:54:48;97820.91;;;7.06;64.57
72950;BME280;64868;45.710;9.590;2023-04-01T05:57:18;97862.84;;;7.24;63.00
72950;BME280;64868;45.710;9.590;2023-04-01T05:59:50;97822.38;;;7.10;63.85
72950;BME280;64868;45.710;9.590;2023-04-01T06:02:18;97838.66;;;7.21;63.06
72950;BME280;64868;45.710;9.590;2023-04-01T06:04:51;97849.06;;;7.27;64.20
72950;BME280;64868;45.710;9.590;2023-04-01T06:07:27;97864.59;;;7.48;62.72
72950;BME280;64868;45.710;9.590;2023-04-01T06:09:57;97841.06;;;7.60;62.07
72950;BME280;64868;45.710;9.590;2023-04-01T06:15:22;97868.34;;;7.92;61.48
72950;BME280;64868;45.710;9.590;2023-04-01T06:20:58;97859.44;;;8.01;61.86
72950;BME280;64868;45.710;9.590;2023-04-01T06:26:26;97867.56;;;8.12;61.03
72950;BME280;64868;45.710;9.590;2023-04-01T06:29:19;97867.09;;;8.18;60.51
72950;BME280;64868;45.710;9.590;2023-04-01T06:35:24;97894.28;;;8.62;60.43
72950;BME280;64868;45.710;9.590;2023-04-01T06:38:21;97886.13;;;8.73;59.24
72950;BME280;64868;45.710;9.590;2023-04-01T06:41:15;97887.53;;;8.88;58.60
72950;BME280;64868;45.710;9.590;2023-04-01T06:44:13;97877.75;;;10.42;54.10
72950;BME280;64868;45.710;9.590;2023-04-01T06:46:51;97882.06;;;16.23;40.67
72950;BME280;64868;45.710;9.590;2023-04-01T06:52:26;97879.75;;;26.23;21.16
72950;BME280;64868;45.710;9.590;2023-04-01T06:55:27;97898.63;;;27.22;20.55
72950;BME280;64868;45.710;9.590;2023-04-01T06:57:58;97900.72;;;28.41;18.47
72950;BME280;64868;45.710;9.590;2023-04-01T07:00:50;97910.38;;;30.32;16.64
72950;BME280;64868;45.710;9.590;2023-04-01T07:03:53;97903.72;;;31.60;15.33
72950;BME280;64868;45.710;9.590;2023-04-01T07:06:38;97901.31;;;30.03;17.22
72950;BME280;64868;45.710;9.590;2023-04-01T07:09:16;97922.16;;;30.93;16.03
72950;BME280;64868;45.710;9.590;2023-04-01T07:11:50;97925.16;;;32.55;14.61
72950;BME280;64868;45.710;9.590;2023-04-01T07:14:26;97923.13;;;33.22;13.73
72950;BME280;64868;45.710;9.590;2023-04-01T07:17:01;97945.97;;;33.40;13.40
72950;BME280;64868;45.710;9.590;2023-04-01T07:19:47;97935.56;;;33.10;13.46
72950;BME280;64868;45.710;9.590;2023-04-01T07:22:41;97925.97;;;32.65;13.86
72950;BME280;64868;45.710;9.590;2023-04-01T07:25:21;97937.41;;;33.76;13.08
72950;BME280;64868;45.710;9.590;2023-04-01T07:27:55;97941.22;;;33.10;13.66
72950;BME280;64868;45.710;9.590;2023-04-01T07:30:31;97919.28;;;33.87;12.68
72950;BME280;64868;45.710;9.590;2023-04-01T07:33:36;97923.63;;;33.59;12.67
72950;BME280;64868;45.710;9.590;2023-04-01T07:39:23;97953.22;;;35.50;11.76
72950;BME280;64868;45.710;9.590;2023-04-01T07:42:17;97939.63;;;34.83;11.90
72950;BME280;64868;45.710;9.590;2023-04-01T07:48:19;97930.78;;;35.48;11.30
72950;BME280;64868;45.710;9.590;2023-04-01T07:50:59;97935.25;;;34.62;11.12
72950;BME280;64868;45.710;9.590;2023-04-01T07:53:46;97927.53;;;36.08;10.46
72950;BME280;64868;45.710;9.590;2023-04-01T07:59:39;97935.13;;;37.67;9.89
72950;BME280;64868;45.710;9.590;2023-04-01T08:16:02;97925.16;;;41.00;7.96
72950;BME280;64868;45.710;9.590;2023-04-01T08:18:54;97937.72;;;41.17;7.26
72950;BME280;64868;45.710;9.590;2023-04-01T08:21:31;97940.25;;;40.57;7.47
72950;BME280;64868;45.710;9.590;2023-04-01T08:24:07;97948.63;;;41.32;7.18
72950;BME280;64868;45.710;9.590;2023-04-01T08:26:45;97937.19;;;42.26;6.53
72950;BME280;64868;45.710;9.590;2023-04-01T08:29:39;97938.06;;;40.98;7.12
72950;BME280;64868;45.710;9.590;2023-04-01T08:32:24;97921.28;;;40.04;7.15
72950;BME280;64868;45.710;9.590;2023-04-01T08:35:09;97939.22;;;41.78;7.06
72950;BME280;64868;45.710;9.590;2023-04-01T08:37:42;97940.72;;;41.46;6.73
72950;BME280;64868;45.710;9.590;2023-04-01T08:57:40;97934.94;;;42.82;6.86
72950;BME280;64868;45.710;9.590;2023-04-01T09:00:29;97928.91;;;41.56;7.34
72950;BME280;64868;45.710;9.590;2023-04-01T09:11:40;97935.19;;;41.24;7.03
72950;BME280;64868;45.710;9.590;2023-04-01T09:26:22;97896.41;;;22.74;24.68
72950;BME280;64868;45.710;9.590;2023-04-01T09:29:26;97884.00;;;21.09;27.17
72950;BME280;64868;45.710;9.590;2023-04-01T09:32:27;97887.06;;;20.17;29.00
72950;BME280;64868;45.710;9.590;2023-04-01T09:36:03;97889.63;;;19.54;28.94
72950;BME280;64868;45.710;9.590;2023-04-01T09:38:29;97860.09;;;18.67;28.08
72950;BME280;64868;45.710;9.590;2023-04-01T09:41:07;97888.28;;;19.07;27.39
72950;BME280;64868;45.710;9.590;2023-04-01T09:44:04;97882.50;;;18.87;30.48
72950;BME280;64868;45.710;9.590;2023-04-01T09:47:05;97878.63;;;19.18;30.01
72950;BME280;64868;45.710;9.590;2023-04-01T09:52:47;97883.59;;;21.74;25.71
72950;BME280;64868;45.710;9.590;2023-04-01T10:07:14;97893.47;;;31.39;15.35
72950;BME280;64868;45.710;9.590;2023-04-01T10:46:42;97856.94;;;22.39;24.14
72950;BME280;64868;45.710;9.590;2023-04-01T10:55:31;97839.38;;;21.46;23.46
72950;BME280;64868;45.710;9.590;2023-04-01T11:01:36;97844.91;;;21.39;23.82
72950;BME280;64868;45.710;9.590;2023-04-01T11:13:10;97834.97;;;21.98;22.95
72950;BME280;64868;45.710;9.590;2023-04-01T11:21:58;97822.25;;;22.68;17.49
72950;BME280;64868;45.710;9.590;2023-04-01T11:24:50;97832.81;;;22.20;19.33
72950;BME280;64868;45.710;9.590;2023-04-01T11:30:20;97838.97;;;22.42;18.70
72950;BME280;64868;45.710;9.590;2023-04-01T11:33:19;97829.13;;;22.59;16.73
72950;BME280;64868;45.710;9.590;2023-04-01T11:36:09;97828.69;;;22.62;15.62
72950;BME280;64868;45.710;9.590;2023-04-01T11:47:19;97826.94;;;23.96;16.91
72950;BME280;64868;45.710;9.590;2023-04-01T11:59:28;97812.00;;;24.59;17.11
72950;BME280;64868;45.710;9.590;2023-04-01T12:05:04;97819.28;;;24.60;16.98
72950;BME280;64868;45.710;9.590;2023-04-01T12:10:30;97794.25;;;23.85;17.32
72950;BME280;64868;45.710;9.590;2023-04-01T12:13:14;97803.19;;;23.68;17.76
72950;BME280;64868;45.710;9.590;2023-04-01T12:15:56;97811.97;;;23.59;18.47
72950;BME280;64868;45.710;9.590;2023-04-01T12:18:43;97799.91;;;23.40;17.65
72950;BME280;64868;45.710;9.590;2023-04-01T12:21:38;97783.19;;;23.15;18.12
72950;BME280;64868;45.710;9.590;2023-04-01T12:30:28;97805.22;;;23.79;17.42
72950;BME280;64868;45.710;9.590;2023-04-01T12:47:51;97801.47;;;23.92;16.37
72950;BME280;64868;45.710;9.590;2023-04-01T12:50:37;97778.56;;;23.90;16.66
72950;BME280;64868;45.710;9.590;2023-04-01T12:55:52;97790.75;;;23.33;17.21
72950;BME280;64868;45.710;9.590;2023-04-01T13:01:13;97785.28;;;23.51;15.71
72950;BME280;64868;45.710;9.590;2023-04-01T13:04:34;97772.31;;;23.38;16.66
72950;BME280;64868;45.710;9.590;2023-04-01T13:13:16;97778.97;;;22.99;18.20
72950;BME280;64868;45.710;9.590;2023-04-01T13:15:52;97769.41;;;23.26;17.13
72950;BME280;64868;45.710;9.590;2023-04-01T13:18:37;97776.31;;;23.49;17.49
72950;BME280;64868;45.710;9.590;2023-04-01T13:21:19;97757.03;;;23.22;16.70
72950;BME280;64868;45.710;9.590;2023-04-01T13:27:29;97759.88;;;23.41;16.28
72950;BME280;64868;45.710;9.590;2023-04-01T13:30:07;97745.88;;;23.54;15.74
72950;BME280;64868;45.710;9.590;2023-04-01T13:32:47;97748.91;;;23.77;15.52
72950;BME280;64868;45.710;9.590;2023-04-01T13:41:43;97744.19;;;23.21;14.85
72950;BME280;64868;45.710;9.590;2023-04-01T13:44:23;97744.53;;;23.00;15.67
72950;BME280;64868;45.710;9.590;2023-04-01T14:04:32;97753.16;;;23.23;15.21
72950;BME280;64868;45.710;9.590;2023-04-01T14:10:05;97738.63;;;23.21;15.18
72950;BME280;64868;45.710;9.590;2023-04-01T14:12:59;97747.59;;;23.23;15.18
72950;BME280;64868;45.710;9.590;2023-04-01T14:21:12;97738.88;;;22.75;15.70
72950;BME280;64868;45.710;9.590;2023-04-01T14:24:31;97724.00;;;22.56;16.01
72950;BME280;64868;45.710;9.590;2023-04-01T14:27:09;97735.13;;;22.49;16.22
72950;BME280;64868;45.710;9.590;2023-04-01T14:30:17;97727.03;;;22.48;16.75
72950;BME280;64868;45.710;9.590;2023-04-01T14:36:10;97732.44;;;22.09;18.04
72950;BME280;64868;45.710;9.590;2023-04-01T14:39:14;97708.56;;;21.95;18.09
72950;BME280;64868;45.710;9.590;2023-04-01T14:45:33;97710.88;;;22.25;17.01
72950;BME280;64868;45.710;9.590;2023-04-01T14:47:50;97701.84;;;22.36;17.13
72950;BME280;64868;45.710;9.590;2023-04-01T14:50:27;97693.72;;;22.34;16.08
72950;BME280;64868;45.710;9.590;2023-04-01T14:53:12;97705.22;;;22.51;16.24
72950;BME280;64868;45.710;9.590;2023-04-01T14:55:48;97700.50;;;22.52;16.76
72950;BME280;64868;45.710;9.590;2023-04-01T14:58:21;97698.47;;;22.72;16.79
72950;BME280;64868;45.710;9.590;2023-04-01T15:00:57;97697.19;;;22.75;16.92
72950;BME280;64868;45.710;9.590;2023-04-01T15:18:07;97692.16;;;22.52;16.40
72950;BME280;64868;45.710;9.590;2023-04-01T15:23:27;97676.72;;;22.18;16.36
72950;BME280;64868;45.710;9.590;2023-04-01T15:31:53;97666.34;;;21.80;17.56
72950;BME280;64868;45.710;9.590;2023-04-01T15:37:46;97669.06;;;21.93;17.26
72950;BME280;64868;45.710;9.590;2023-04-01T15:40:27;97672.09;;;21.78;16.46
72950;BME280;64868;45.710;9.590;2023-04-01T15:45:48;97659.97;;;21.20;17.57
72950;BME280;64868;45.710;9.590;2023-04-01T16:00:02;97657.56;;;20.83;18.97
72950;BME280;64868;45.710;9.590;2023-04-01T16:02:51;97643.94;;;20.69;19.03
72950;BME280;64868;45.710;9.590;2023-04-01T16:20:14;97652.94;;;19.81;19.64
72950;BME280;64868;45.710;9.590;2023-04-01T16:25:45;97654.41;;;19.49;20.05
72950;BME280;64868;45.710;9.590;2023-04-01T16:28:17;97656.72;;;19.45;19.94
72950;BME280;64868;45.710;9.590;2023-04-01T16:33:50;97658.66;;;19.24;20.34
72950;BME280;64868;45.710;9.590;2023-04-01T16:36:41;97653.75;;;19.19;20.66
72950;BME280;64868;45.710;9.590;2023-04-01T16:39:18;97651.59;;;19.14;21.20
72950;BME280;64868;45.710;9.590;2023-04-01T16:42:13;97649.69;;;18.93;21.50
72950;BME280;64868;45.710;9.590;2023-04-01T16:45:45;97661.97;;;18.84;21.61
72950;BME280;64868;45.710;9.590;2023-04-01T16:48:17;97650.19;;;18.76;21.21
72950;BME280;64868;45.710;9.590;2023-04-01T16:50:56;97661.75;;;18.86;20.56
72950;BME280;64868;45.710;9.590;2023-04-01T16:53:50;97654.31;;;18.65;21.52
72950;BME280;64868;45.710;9.590;2023-04-01T16:56:35;97661.97;;;18.84;21.32
72950;BME280;64868;45.710;9.590;2023-04-01T17:01:56;97653.94;;;20.08;19.43
72950;BME280;64868;45.710;9.590;2023-04-01T17:05:15;97650.34;;;20.82;17.84
72950;BME280;64868;45.710;9.590;2023-04-01T17:08:10;97630.41;;;20.39;18.74
72950;BME280;64868;45.710;9.590;2023-04-01T17:10:53;97637.66;;;19.57;19.55
72950;BME280;64868;45.710;9.590;2023-04-01T17:13:43;97637.47;;;19.03;19.83
72950;BME280;64868;45.710;9.590;2023-04-01T17:24:59;97647.69;;;18.23;21.09
72950;BME280;64868;45.710;9.590;2023-04-01T17:27:42;97636.34;;;17.82;21.58
72950;BME280;64868;45.710;9.590;2023-04-01T17:30:30;97645.25;;;17.69;21.77
72950;BME280;64868;45.710;9.590;2023-04-01T17:39:24;97651.72;;;17.46;22.32
72950;BME280;64868;45.710;9.590;2023-04-01T17:51:22;97657.22;;;17.17;23.41
72950;BME280;64868;45.710;9.590;2023-04-01T17:54:23;97670.94;;;17.02;23.80
72950;BME280;64868;45.710;9.590;2023-04-01T17:59:41;97659.59;;;16.82;24.73
72950;BME280;64868;45.710;9.590;2023-04-01T18:02:31;97664.97;;;16.75;24.07
72950;BME280;64868;45.710;9.590;2023-04-01T18:08:25;97659.25;;;16.54;25.06
72950;BME280;64868;45.710;9.590;2023-04-01T18:16:34;97664.72;;;16.31;26.04
72950;BME280;64868;45.710;9.590;2023-04-01T18:22:26;97671.06;;;16.09;26.41
72950;BME280;64868;45.710;9.590;2023-04-01T18:25:05;97666.28;;;16.02;26.23
72950;BME280;64868;45.710;9.590;2023-04-01T18:27:45;97650.91;;;15.85;27.32
72950;BME280;64868;45.710;9.590;2023-04-01T18:30:18;97662.03;;;15.92;28.19
72950;BME280;64868;45.710;9.590;2023-04-01T18:32:55;97624.19;;;15.63;27.70
72950;BME280;64868;45.710;9.590;2023-04-01T18:35:45;97660.34;;;15.82;27.38
72950;BME280;64868;45.710;9.590;2023-04-01T18:38:17;97617.22;;;15.44;27.62
72950;BME280;64868;45.710;9.590;2023-04-01T18:41:02;97667.09;;;15.72;27.52
72950;BME280;64868;45.710;9.590;2023-04-01T18:43:59;97657.84;;;15.56;27.27
72950;BME280;64868;45.710;9.590;2023-04-01T18:46:50;97683.94;;;15.52;28.13
72950;BME280;64868;45.710;9.590;2023-04-01T18:52:16;97690.00;;;15.40;27.43
72950;BME280;64868;45.710;9.590;2023-04-01T18:55:22;97698.41;;;15.30;29.05
72950;BME280;64868;45.710;9.590;2023-04-01T18:57:58;97663.31;;;15.01;29.05
72950;BME280;64868;45.710;9.590;2023-04-01T19:01:04;97669.13;;;14.98;28.72
72950;BME280;64868;45.710;9.590;2023-04-01T19:06:36;97705.81;;;15.29;27.80
72950;BME280;64868;45.710;9.590;2023-04-01T19:09:18;97707.72;;;15.21;27.98
72950;BME280;64868;45.710;9.590;2023-04-01T19:20:35;97723.34;;;15.12;28.01
72950;BME280;64868;45.710;9.590;2023-04-01T19:23:17;97727.97;;;15.03;28.52
72950;BME280;64868;45.710;9.590;2023-04-01T19:25:55;97726.44;;;15.09;27.93
72950;BME280;64868;45.710;9.590;2023-04-01T19:37:32;97708.72;;;14.54;29.24
72950;BME280;64868;45.710;9.590;2023-04-01T19:42:59;97665.63;;;14.06;30.67
72950;BME280;64868;45.710;9.590;2023-04-01T19:45:43;97737.13;;;14.45;30.73
72950;BME280;64868;45.710;9.590;2023-04-01T19:50:58;97709.59;;;14.04;31.80
72950;BME280;64868;45.710;9.590;2023-04-01T19:53:39;97624.81;;;13.44;32.48
72950;BME280;64868;45.710;9.590;2023-04-01T19:56:19;97744.91;;;14.07;32.37
72950;BME280;64868;45.710;9.590;2023-04-01T19:59:19;97741.09;;;14.00;33.19
72950;BME280;64868;45.710;9.590;2023-04-01T20:02:01;97735.91;;;13.89;33.36
72950;BME280;64868;45.710;9.590;2023-04-01T20:04:48;97662.50;;;13.24;33.89
72950;BME280;64868;45.710;9.590;2023-04-01T20:07:43;97746.38;;;13.59;34.51
72950;BME280;64868;45.710;9.590;2023-04-01T20:10:20;97707.00;;;13.26;35.63
72950;BME280;64868;45.710;9.590;2023-04-01T20:15:43;97747.31;;;13.42;35.71
72950;BME280;64868;45.710;9.590;2023-04-01T20:18:14;97751.09;;;13.41;35.62
72950;BME280;64868;45.710;9.590;2023-04-01T20:26:22;97754.09;;;13.30;36.41
72950;BME280;64868;45.710;9.590;2023-04-01T20:29:27;97758.44;;;13.23;36.90
72950;BME280;64868;45.710;9.590;2023-04-01T20:32:16;97722.56;;;12.82;36.90
72950;BME280;64868;45.710;9.590;2023-04-01T20:35:17;97677.03;;;12.55;37.67
72950;BME280;64868;45.710;9.590;2023-04-01T20:37:52;97718.91;;;12.73;37.32
72950;BME280;64868;45.710;9.590;2023-04-01T20:40:40;97767.94;;;12.93;37.98
72950;BME280;64868;45.710;9.590;2023-04-01T20:46:21;97757.38;;;12.80;36.58
72950;BME280;64868;45.710;9.590;2023-04-01T20:52:19;97774.03;;;12.86;36.80
72950;BME280;64868;45.710;9.590;2023-04-01T20:55:18;97713.19;;;12.49;35.80